Howwood, United Kingdom
Current Conditions -  °F | °C
As of 12:20 AM on Thursday 23 Oct 2014 (Local Time) from EGPF Reporting Station
Overcast Overcast  
Wind Chill: 54°   Ceiling: 2000
Heat Index: 54°   Visibility: 6mi
Dew Point: 50°   Wind: 14mph
Humidity: 88%   Direction: 230°SW
Pressure: 29.88"   Gusts: NA
Location:  55.8°N, 4.55°W
Report Text: EGPF 222320Z AUTO 23012KT 9999 OVC020 12/10 Q1012
Loading
Personal Weather Stations






























Interactive Weather Map
Tropical Storm Tracking
New forecast layout! Learn more

10-Day Weather Forecast

Advertisements
Track Severe Weather on mobile